createdAt,value
2019-06-20T00:01:51.768Z,16.6
2019-06-20T00:03:51.803Z,16.6
2019-06-20T00:05:51.750Z,16.6
2019-06-20T00:06:08.894Z,16.6
2019-06-20T00:07:51.789Z,16.6
2019-06-20T00:09:52.520Z,16.5
2019-06-20T00:11:51.758Z,16.5
2019-06-20T00:13:51.680Z,16.5
2019-06-20T00:15:51.714Z,16.5
2019-06-20T00:17:51.767Z,16.4
2019-06-20T00:19:51.858Z,16.4
2019-06-20T00:21:08.818Z,16.4
2019-06-20T00:21:51.749Z,16.4
2019-06-20T00:23:51.797Z,16.4
2019-06-20T00:25:51.838Z,16.4
2019-06-20T00:27:51.810Z,16.4
2019-06-20T00:29:51.767Z,16.3
2019-06-20T00:31:51.804Z,16.3
2019-06-20T00:33:51.762Z,16.3
2019-06-20T00:35:51.796Z,16.3
2019-06-20T00:36:08.844Z,16.3
2019-06-20T00:37:51.756Z,16.4
2019-06-20T00:39:51.796Z,16.4
2019-06-20T00:41:51.769Z,16.4
2019-06-20T00:43:51.738Z,16.4
2019-06-20T00:45:51.836Z,16.4
2019-06-20T00:47:51.821Z,16.4
2019-06-20T00:49:51.894Z,16.4
2019-06-20T00:51:08.828Z,16.4
2019-06-20T00:51:52.647Z,16.4
2019-06-20T00:53:51.779Z,16.4
2019-06-20T00:55:51.765Z,16.4
2019-06-20T00:57:51.814Z,16.4
2019-06-20T00:59:51.896Z,16.4
2019-06-20T01:01:51.781Z,16.4
2019-06-20T01:03:51.818Z,16.4
2019-06-20T01:05:51.810Z,16.4
2019-06-20T01:06:08.707Z,16.4
2019-06-20T01:07:51.799Z,16.4
2019-06-20T01:09:51.813Z,16.4
2019-06-20T01:11:51.811Z,16.4
2019-06-20T01:13:52.836Z,16.4
2019-06-20T01:15:51.796Z,16.4
2019-06-20T01:17:51.807Z,16.4
2019-06-20T01:19:51.745Z,16.4
2019-06-20T01:21:08.710Z,16.4
2019-06-20T01:21:51.805Z,16.4
2019-06-20T01:23:51.852Z,16.4
2019-06-20T01:25:51.774Z,16.4
2019-06-20T01:27:51.804Z,16.4
2019-06-20T01:29:51.799Z,16.4
2019-06-20T01:31:51.810Z,16.4
2019-06-20T01:33:51.773Z,16.4
2019-06-20T01:35:51.813Z,16.4
2019-06-20T01:36:08.790Z,16.4
2019-06-20T01:37:51.766Z,16.4
2019-06-20T01:39:52.722Z,16.4
2019-06-20T01:41:51.810Z,16.4
2019-06-20T01:43:51.721Z,16.4
2019-06-20T01:45:51.793Z,16.4
2019-06-20T01:47:51.899Z,16.4
2019-06-20T01:49:52.685Z,16.4
2019-06-20T01:51:08.789Z,16.4
2019-06-20T01:51:51.824Z,16.4
2019-06-20T01:53:51.780Z,16.4
2019-06-20T01:55:51.828Z,16.4
2019-06-20T01:57:51.824Z,16.3
2019-06-20T01:59:51.760Z,16.3
2019-06-20T02:01:51.780Z,16.3
2019-06-20T02:03:51.743Z,16.4
2019-06-20T02:05:51.820Z,16.4
2019-06-20T02:06:08.828Z,16.4
2019-06-20T02:07:51.807Z,16.4
2019-06-20T02:09:51.771Z,16.4
2019-06-20T02:11:51.791Z,16.4
2019-06-20T02:14:06.323Z,16.3
2019-06-20T02:15:51.827Z,16.3
2019-06-20T02:17:51.822Z,16.3
2019-06-20T02:19:51.855Z,16.3
2019-06-20T02:21:08.729Z,16.3
2019-06-20T02:21:51.835Z,16.3
2019-06-20T02:23:51.896Z,16.3
2019-06-20T02:25:51.766Z,16.3
2019-06-20T02:27:51.893Z,16.3
2019-06-20T02:29:51.788Z,16.3
2019-06-20T02:31:51.849Z,16.3
2019-06-20T02:33:51.812Z,16.3
2019-06-20T02:35:51.913Z,16.3
2019-06-20T02:36:08.841Z,16.3
2019-06-20T02:37:51.805Z,16.3
2019-06-20T02:39:51.762Z,16.3
2019-06-20T02:41:51.856Z,16.3
2019-06-20T02:43:51.814Z,16.4
2019-06-20T02:45:51.787Z,16.4
2019-06-20T02:47:51.815Z,16.4
2019-06-20T02:49:51.770Z,16.4
2019-06-20T02:51:08.842Z,16.4
2019-06-20T02:51:51.909Z,16.4
2019-06-20T02:53:51.728Z,16.3
2019-06-20T02:55:51.827Z,16.3
2019-06-20T02:57:51.813Z,16.3
2019-06-20T02:59:51.754Z,16.3
2019-06-20T03:01:51.820Z,16.3
2019-06-20T03:03:51.754Z,16.3
2019-06-20T03:05:51.824Z,16.3
2019-06-20T03:06:09.693Z,16.3
2019-06-20T03:07:51.808Z,16.3
2019-06-20T03:09:51.805Z,16.3
2019-06-20T03:11:51.797Z,16.3
2019-06-20T03:13:51.806Z,16.3
2019-06-20T03:15:51.892Z,16.3
2019-06-20T03:17:51.806Z,16.3
2019-06-20T03:19:51.817Z,16.3
2019-06-20T03:21:08.860Z,16.3
2019-06-20T03:21:51.848Z,16.3
2019-06-20T03:23:51.793Z,16.3
2019-06-20T03:25:51.813Z,16.3
2019-06-20T03:27:51.752Z,16.3
2019-06-20T03:29:51.790Z,16.3
2019-06-20T03:31:51.833Z,16.2
2019-06-20T03:33:51.804Z,16.2
2019-06-20T03:35:51.822Z,16.1
2019-06-20T03:36:09.692Z,16.1
2019-06-20T03:37:51.756Z,16.1
2019-06-20T03:39:51.800Z,16.1
2019-06-20T03:41:51.884Z,16.1
2019-06-20T03:43:51.754Z,16.1
2019-06-20T03:45:51.805Z,16.1
2019-06-20T03:47:51.682Z,16.1
2019-06-20T03:49:51.806Z,16.1
2019-06-20T03:51:08.820Z,16.1
2019-06-20T03:51:52.690Z,16.1
2019-06-20T03:53:51.812Z,16.1
2019-06-20T03:55:51.724Z,16.1
2019-06-20T03:57:51.869Z,16.1
2019-06-20T03:59:51.777Z,16.1
2019-06-20T04:01:51.806Z,16.1
2019-06-20T04:03:51.765Z,16.1
2019-06-20T04:05:51.797Z,16.1
2019-06-20T04:06:08.799Z,16.1
2019-06-20T04:07:51.765Z,16.1
2019-06-20T04:09:51.795Z,16.1
2019-06-20T04:11:51.769Z,16.1
2019-06-20T04:13:51.883Z,16.1
2019-06-20T04:15:51.813Z,16.1
2019-06-20T04:17:51.784Z,16.1
2019-06-20T04:19:51.865Z,16.1
2019-06-20T04:21:08.846Z,16.2
2019-06-20T04:21:51.814Z,16.2
2019-06-20T04:23:51.828Z,16.2
2019-06-20T04:25:51.806Z,16.3
2019-06-20T04:27:51.845Z,16.2
2019-06-20T04:29:51.830Z,16.2
2019-06-20T04:31:51.756Z,16.3
2019-06-20T04:33:51.813Z,16.2
2019-06-20T04:35:51.764Z,16.3
2019-06-20T04:36:08.768Z,16.3
2019-06-20T04:37:51.766Z,16.3
2019-06-20T04:39:51.767Z,16.3
2019-06-20T04:41:52.692Z,16.3
2019-06-20T04:43:51.812Z,16.3
2019-06-20T04:45:51.833Z,16.3
2019-06-20T04:47:51.765Z,16.3
2019-06-20T04:49:51.820Z,16.3
2019-06-20T04:51:08.786Z,16.2
2019-06-20T04:51:51.858Z,16.2
2019-06-20T04:53:51.804Z,16.2
2019-06-20T04:55:51.768Z,16.3
2019-06-20T04:57:51.805Z,16.3
2019-06-20T04:59:51.795Z,16.3
2019-06-20T05:01:51.814Z,16.3
2019-06-20T05:03:51.875Z,16.2
2019-06-20T05:05:51.803Z,16.2
2019-06-20T05:06:08.823Z,16.2
2019-06-20T05:07:52.778Z,16.2
2019-06-20T05:09:52.692Z,16.2
2019-06-20T05:11:51.831Z,16.1
2019-06-20T05:13:51.821Z,16.1
2019-06-20T05:15:52.842Z,16.2
2019-06-20T05:17:51.890Z,16.2
2019-06-20T05:19:51.804Z,16.3
2019-06-20T05:21:08.753Z,16.3
2019-06-20T05:21:51.795Z,16.3
2019-06-20T05:23:53.526Z,16.4
2019-06-20T05:25:51.763Z,16.4
2019-06-20T05:27:51.759Z,16.5
2019-06-20T05:29:51.727Z,16.6
2019-06-20T05:31:52.644Z,16.6
2019-06-20T05:33:51.931Z,16.6
2019-06-20T05:35:51.836Z,16.8
2019-06-20T05:36:08.766Z,16.8
2019-06-20T05:37:51.699Z,16.8
2019-06-20T05:39:51.886Z,17
2019-06-20T05:41:51.785Z,17.1
2019-06-20T05:43:51.830Z,17
2019-06-20T05:46:05.440Z,17.1
2019-06-20T05:47:51.919Z,17.1
2019-06-20T05:49:51.748Z,17.1
2019-06-20T05:51:08.754Z,17.3
2019-06-20T05:51:51.772Z,17.2
2019-06-20T05:53:51.811Z,17.2
2019-06-20T05:55:51.855Z,17.2
2019-06-20T05:57:51.832Z,17.3
2019-06-20T05:59:51.805Z,17.3
2019-06-20T06:01:51.917Z,17.2
2019-06-20T06:03:51.825Z,17.3
2019-06-20T06:05:51.687Z,17.3
2019-06-20T06:06:08.833Z,17.3
2019-06-20T06:07:51.832Z,17.4
2019-06-20T06:09:51.821Z,17.4
2019-06-20T06:11:51.997Z,17.3
2019-06-20T06:13:51.847Z,17.3
2019-06-20T06:15:51.815Z,17.4
2019-06-20T06:17:51.764Z,17.4
2019-06-20T06:19:51.829Z,17.4
2019-06-20T06:21:08.841Z,17.4
2019-06-20T06:21:51.925Z,17.5
2019-06-20T06:23:52.954Z,17.4
2019-06-20T06:25:51.830Z,17.4
2019-06-20T06:27:51.844Z,17.4
2019-06-20T06:29:51.780Z,17.4
2019-06-20T06:31:51.738Z,17.6
2019-06-20T06:33:51.778Z,17.5
2019-06-20T06:35:51.730Z,17.3
2019-06-20T06:36:08.775Z,17.3
2019-06-20T06:37:51.723Z,17.3
2019-06-20T06:39:51.833Z,17.2
2019-06-20T06:41:51.843Z,17.2
2019-06-20T06:43:51.894Z,17.4
2019-06-20T06:45:51.813Z,17.5
2019-06-20T06:47:51.813Z,17.4
2019-06-20T06:49:51.784Z,17.4
2019-06-20T06:51:08.855Z,17.4
2019-06-20T06:51:51.828Z,17.3
2019-06-20T06:53:51.836Z,17.3
2019-06-20T06:55:53.234Z,17.4
2019-06-20T06:57:51.787Z,17.3
2019-06-20T06:59:51.765Z,17.4
2019-06-20T07:01:51.815Z,17.2
2019-06-20T07:03:51.916Z,17.3
2019-06-20T07:05:52.039Z,17.3
2019-06-20T07:06:08.791Z,17.4
2019-06-20T07:07:51.760Z,17.4
2019-06-20T07:09:51.808Z,17.5
2019-06-20T07:11:51.833Z,17.4
2019-06-20T07:13:51.840Z,17.6
2019-06-20T07:15:51.829Z,17.7
2019-06-20T07:17:51.779Z,17.6
2019-06-20T07:19:51.807Z,17.7
2019-06-20T07:21:08.848Z,17.8
2019-06-20T07:21:51.847Z,17.8
2019-06-20T07:23:51.788Z,17.8
2019-06-20T07:25:51.821Z,17.6
2019-06-20T07:27:51.768Z,17.7
2019-06-20T07:29:51.811Z,17.8
2019-06-20T07:31:51.842Z,17.9
2019-06-20T07:33:51.820Z,18
2019-06-20T07:35:51.869Z,18.1
2019-06-20T07:36:08.811Z,18.2
2019-06-20T07:37:51.816Z,18.2
2019-06-20T07:39:51.708Z,18.3
2019-06-20T07:41:51.828Z,18.4
2019-06-20T07:43:51.693Z,18.4
2019-06-20T07:46:01.845Z,18.4
2019-06-20T07:47:51.852Z,18.4
2019-06-20T07:49:51.918Z,18.6
2019-06-20T07:51:08.881Z,18.6
2019-06-20T07:51:51.869Z,18.6
2019-06-20T07:53:51.856Z,18.5
2019-06-20T07:55:51.764Z,18.4
2019-06-20T07:57:51.813Z,18.4
2019-06-20T07:59:51.753Z,18.5
2019-06-20T08:01:51.822Z,18.6
2019-06-20T08:03:51.766Z,18.7
2019-06-20T08:05:51.763Z,19
2019-06-20T08:06:08.823Z,19
2019-06-20T08:07:51.814Z,19.1
2019-06-20T08:09:51.861Z,19.1
2019-06-20T08:11:51.748Z,19.1
2019-06-20T08:13:51.808Z,19.1
2019-06-20T08:15:51.764Z,18.8
2019-06-20T08:17:51.753Z,19
2019-06-20T08:19:51.843Z,19
2019-06-20T08:21:08.824Z,19.1
2019-06-20T08:21:51.837Z,19
2019-06-20T08:23:51.763Z,18.9
2019-06-20T08:25:51.807Z,18.9
2019-06-20T08:27:51.874Z,18.7
2019-06-20T08:29:51.824Z,18.6
2019-06-20T08:31:51.804Z,18.8
2019-06-20T08:33:51.894Z,18.9
2019-06-20T08:35:51.940Z,18.9
2019-06-20T08:36:08.864Z,18.8
2019-06-20T08:37:51.755Z,18.8
2019-06-20T08:39:51.813Z,19
2019-06-20T08:41:51.798Z,18.9
2019-06-20T08:43:51.776Z,18.9
2019-06-20T08:45:51.837Z,18.9
2019-06-20T08:47:51.814Z,19
2019-06-20T08:49:51.770Z,19.1
2019-06-20T08:51:08.939Z,18.9
2019-06-20T08:51:51.688Z,18.9
2019-06-20T08:53:51.797Z,18.9
2019-06-20T08:55:51.845Z,19.1
2019-06-20T08:57:51.888Z,19.1
2019-06-20T08:59:51.809Z,19.1
2019-06-20T09:01:51.825Z,19.2
2019-06-20T09:03:53.913Z,19.1
2019-06-20T09:05:51.824Z,19.1
2019-06-20T09:06:08.899Z,19.1
2019-06-20T09:07:51.761Z,19.1
2019-06-20T09:09:52.940Z,19.2
2019-06-20T09:11:51.789Z,19.1
2019-06-20T09:13:53.738Z,18.8
2019-06-20T09:15:52.198Z,18.6
2019-06-20T09:17:52.977Z,18.6
2019-06-20T09:19:52.838Z,18.4
2019-06-20T09:21:08.890Z,18.4
2019-06-20T09:21:52.981Z,18.4
2019-06-20T09:23:52.848Z,18.4
2019-06-20T09:25:52.721Z,18.3
2019-06-20T09:27:53.139Z,18.2
2019-06-20T09:29:52.988Z,18.3
2019-06-20T09:31:52.887Z,18.4
2019-06-20T09:33:52.569Z,18.7
2019-06-20T09:35:52.622Z,18.8
2019-06-20T09:36:08.886Z,18.9
2019-06-20T09:37:51.895Z,19
2019-06-20T09:39:52.970Z,19.2
2019-06-20T09:41:52.671Z,19.1
2019-06-20T09:43:52.662Z,19
2019-06-20T09:45:53.069Z,18.8
2019-06-20T09:47:52.176Z,18.8
2019-06-20T09:49:54.050Z,18.7
2019-06-20T09:51:09.722Z,18.8
2019-06-20T09:51:52.139Z,18.7
2019-06-20T09:53:51.927Z,18.6
2019-06-20T09:55:51.929Z,18.6
2019-06-20T09:57:51.992Z,18.6
2019-06-20T10:00:00.219Z,18.6
2019-06-20T10:01:53.373Z,18.6
2019-06-20T10:03:52.427Z,18.5
2019-06-20T10:05:54.740Z,18.5
2019-06-20T10:06:13.626Z,18.6
2019-06-20T10:07:52.248Z,18.6
2019-06-20T10:09:52.065Z,18.8
2019-06-20T10:11:51.951Z,19
2019-06-20T10:13:52.249Z,19.3
2019-06-20T10:15:51.757Z,19.6
2019-06-20T10:17:51.812Z,19.8
2019-06-20T10:19:52.087Z,19.8
2019-06-20T10:21:09.076Z,19.7
2019-06-20T10:21:51.973Z,19.7
2019-06-20T10:23:51.977Z,19.6
2019-06-20T10:25:51.822Z,19.6
2019-06-20T10:27:51.765Z,19.4
2019-06-20T10:29:53.429Z,19.2
2019-06-20T10:31:53.126Z,19.4
2019-06-20T10:33:52.512Z,19.6
2019-06-20T10:35:52.602Z,19.9
2019-06-20T10:36:08.896Z,19.9
2019-06-20T10:37:52.917Z,19.9
2019-06-20T10:39:52.114Z,19.8
2019-06-20T10:41:52.334Z,20
2019-06-20T10:43:51.847Z,19.8
2019-06-20T10:45:52.573Z,19.8
2019-06-20T10:47:52.858Z,19.9
2019-06-20T10:49:51.986Z,19.6
2019-06-20T10:51:08.918Z,19.6
2019-06-20T10:51:51.979Z,19.7
2019-06-20T10:53:51.809Z,19.6
2019-06-20T10:55:51.767Z,19.7
2019-06-20T10:57:51.962Z,19.8
2019-06-20T10:59:51.898Z,19.8
2019-06-20T11:01:51.804Z,19.8
2019-06-20T11:03:51.762Z,19.8
2019-06-20T11:05:51.851Z,19.6
2019-06-20T11:06:09.009Z,19.6
2019-06-20T11:07:51.780Z,19.7
2019-06-20T11:09:51.833Z,19.4
2019-06-20T11:11:51.844Z,19.3
2019-06-20T11:13:51.824Z,19.3
2019-06-20T11:15:51.760Z,19.3
2019-06-20T11:17:51.824Z,19.4
2019-06-20T11:19:51.826Z,19.5
2019-06-20T11:21:09.003Z,19.5
2019-06-20T11:21:51.949Z,19.4
2019-06-20T11:23:51.772Z,19.1
2019-06-20T11:25:51.756Z,19.1
2019-06-20T11:27:51.832Z,18.8
2019-06-20T11:29:51.924Z,18.8
2019-06-20T11:31:51.912Z,18.6
2019-06-20T11:33:51.844Z,18.6
2019-06-20T11:35:51.892Z,18.5
2019-06-20T11:36:09.727Z,18.4
2019-06-20T11:37:51.806Z,18.4
2019-06-20T11:39:51.811Z,18.3
2019-06-20T11:41:51.904Z,18.2
2019-06-20T11:43:51.959Z,18.3
2019-06-20T11:45:51.805Z,18.3
2019-06-20T11:47:51.760Z,18.5
2019-06-20T11:49:51.759Z,18.4
2019-06-20T11:51:08.986Z,18.4
2019-06-20T11:51:51.760Z,18.5
2019-06-20T11:53:51.888Z,18.5
2019-06-20T11:55:51.765Z,18.5
2019-06-20T11:57:51.789Z,18.4
2019-06-20T11:59:51.769Z,18.5
2019-06-20T12:01:51.772Z,18.2
2019-06-20T12:03:51.860Z,18.1
2019-06-20T12:05:51.899Z,18.1
2019-06-20T12:06:08.898Z,18.1
2019-06-20T12:07:52.710Z,18.1
2019-06-20T12:09:51.902Z,17.9
2019-06-20T12:11:51.763Z,17.8
2019-06-20T12:13:51.722Z,17.8
2019-06-20T12:15:51.841Z,17.6
2019-06-20T12:17:51.815Z,17.8
2019-06-20T12:19:51.840Z,17.8
2019-06-20T12:21:09.015Z,17.8
2019-06-20T12:21:51.744Z,17.8
2019-06-20T12:23:51.762Z,17.7
2019-06-20T12:25:51.849Z,17.6
2019-06-20T12:27:51.790Z,17.6
2019-06-20T12:29:51.814Z,17.6
2019-06-20T12:31:52.825Z,17.4
2019-06-20T12:33:51.797Z,17.3
2019-06-20T12:35:51.818Z,17.1
2019-06-20T12:36:08.927Z,17.1
2019-06-20T12:37:52.177Z,17
2019-06-20T12:39:52.707Z,16.8
2019-06-20T12:41:51.733Z,16.7
2019-06-20T12:43:51.877Z,16.8
2019-06-20T12:45:51.825Z,16.8
2019-06-20T12:47:51.737Z,16.9
2019-06-20T12:49:51.836Z,17.1
2019-06-20T12:51:08.941Z,17.1
2019-06-20T12:51:51.878Z,17.1
2019-06-20T12:53:51.822Z,17.2
2019-06-20T12:55:51.809Z,17.3
2019-06-20T12:57:51.728Z,17.5
2019-06-20T12:59:51.789Z,17.8
2019-06-20T13:01:51.776Z,17.8
2019-06-20T13:03:51.798Z,17.9
2019-06-20T13:05:51.863Z,18.3
2019-06-20T13:06:09.024Z,18.3
2019-06-20T13:07:51.765Z,18.3
2019-06-20T13:09:51.722Z,18.4
2019-06-20T13:11:51.797Z,18.3
2019-06-20T13:13:51.775Z,18.5
2019-06-20T13:15:51.824Z,18.5
2019-06-20T13:17:51.815Z,18.6
2019-06-20T13:19:51.816Z,18.9
2019-06-20T13:21:08.961Z,19.1
2019-06-20T13:21:51.830Z,19.1
2019-06-20T13:23:51.901Z,19
2019-06-20T13:25:51.825Z,19.1
2019-06-20T13:27:51.792Z,18.9
2019-06-20T13:29:51.901Z,18.9
2019-06-20T13:32:01.436Z,18.9
2019-06-20T13:33:51.795Z,19
2019-06-20T13:35:51.794Z,19.1
2019-06-20T13:36:08.981Z,19.1
2019-06-20T13:37:51.872Z,19.1
2019-06-20T13:39:51.815Z,19.1
2019-06-20T13:41:51.898Z,19.2
2019-06-20T13:43:51.775Z,19
2019-06-20T13:45:52.087Z,18.9
2019-06-20T13:47:51.895Z,18.9
2019-06-20T13:49:51.755Z,18.7
2019-06-20T13:51:09.001Z,18.6
2019-06-20T13:51:51.813Z,18.7
2019-06-20T13:53:51.808Z,18.9
2019-06-20T13:55:51.684Z,18.8
2019-06-20T13:57:51.825Z,19.2
2019-06-20T13:59:52.860Z,19.4
2019-06-20T14:02:05.775Z,19.6
2019-06-20T14:03:51.847Z,19.5
2019-06-20T14:05:51.810Z,19.5
2019-06-20T14:06:08.997Z,19.5
2019-06-20T14:07:54.166Z,19.4
2019-06-20T14:09:51.759Z,19.3
2019-06-20T14:11:51.804Z,19.3
2019-06-20T14:13:52.984Z,19.3
2019-06-20T14:15:51.885Z,19.3
2019-06-20T14:17:51.728Z,19.4
2019-06-20T14:19:51.878Z,19.8
2019-06-20T14:21:09.016Z,19.9
2019-06-20T14:21:51.751Z,20
2019-06-20T14:23:53.734Z,20.3
2019-06-20T14:25:51.883Z,20.7
2019-06-20T14:27:51.844Z,20.7
2019-06-20T14:29:51.814Z,20.8
2019-06-20T14:31:51.780Z,21.2
2019-06-20T14:33:51.808Z,21.1
2019-06-20T14:35:51.688Z,21.3
2019-06-20T14:36:09.010Z,21.3
2019-06-20T14:37:52.050Z,21.4
2019-06-20T14:39:52.636Z,21.6
2019-06-20T14:41:51.881Z,21.5
2019-06-20T14:43:51.882Z,21.3
2019-06-20T14:45:51.839Z,20.9
2019-06-20T14:47:52.545Z,21
2019-06-20T14:49:51.802Z,21
2019-06-20T14:51:09.050Z,21
2019-06-20T14:51:52.421Z,21.1
2019-06-20T14:53:52.669Z,20.9
2019-06-20T14:55:51.823Z,20.9
2019-06-20T14:57:52.436Z,21.1
2019-06-20T14:59:52.633Z,21
2019-06-20T15:01:52.593Z,21.1
2019-06-20T15:03:51.800Z,21.1
2019-06-20T15:05:52.543Z,21.2
2019-06-20T15:06:09.727Z,21.3
2019-06-20T15:07:53.619Z,21.5
2019-06-20T15:09:52.887Z,22.1
2019-06-20T15:11:53.087Z,22.6
2019-06-20T15:13:51.797Z,22.3
2019-06-20T15:15:53.151Z,21.8
2019-06-20T15:17:53.556Z,21.8
2019-06-20T15:19:51.805Z,21.6
2019-06-20T15:21:08.946Z,21.8
2019-06-20T15:21:52.049Z,22.1
2019-06-20T15:23:52.548Z,22.5
2019-06-20T15:25:52.097Z,22.4
2019-06-20T15:27:53.329Z,22.6
2019-06-20T15:29:52.184Z,23
2019-06-20T15:31:52.606Z,22.8
2019-06-20T15:33:53.236Z,22.3
2019-06-20T15:35:53.344Z,22.1
2019-06-20T15:36:09.099Z,22.1
2019-06-20T15:37:53.319Z,21.9
2019-06-20T15:39:53.152Z,21.9
2019-06-20T15:41:51.752Z,21.7
2019-06-20T15:43:51.880Z,21.8
2019-06-20T15:45:52.074Z,21.8
2019-06-20T15:47:51.861Z,21.8
2019-06-20T15:49:51.809Z,21.6
2019-06-20T15:51:08.971Z,21.6
2019-06-20T15:51:51.806Z,21.6
2019-06-20T15:53:51.737Z,21.6
2019-06-20T15:55:51.770Z,21.7
2019-06-20T15:57:54.134Z,22
2019-06-20T15:59:51.803Z,22.1
2019-06-20T16:01:51.800Z,22.3
2019-06-20T16:03:51.808Z,22.8
2019-06-20T16:05:51.903Z,22.9
2019-06-20T16:06:08.921Z,22.9
2019-06-20T16:07:51.766Z,22.9
2019-06-20T16:09:51.797Z,23.1
2019-06-20T16:11:51.838Z,22.9
2019-06-20T16:13:51.803Z,22.8
2019-06-20T16:15:52.639Z,23.3
2019-06-20T16:17:51.809Z,23.9
2019-06-20T16:19:51.887Z,23.8
2019-06-20T16:21:08.936Z,23.1
2019-06-20T16:21:51.799Z,23.2
2019-06-20T16:23:51.802Z,22.8
2019-06-20T16:25:51.728Z,22.4
2019-06-20T16:27:51.810Z,22.3
2019-06-20T16:29:51.879Z,22.6
2019-06-20T16:31:51.814Z,22.6
2019-06-20T16:33:51.823Z,22.8
2019-06-20T16:35:51.796Z,22.8
2019-06-20T16:36:09.007Z,22.8
2019-06-20T16:37:51.785Z,22.5
2019-06-20T16:39:51.808Z,22.1
2019-06-20T16:41:51.806Z,21.9
2019-06-20T16:43:51.819Z,21.8
2019-06-20T16:45:51.808Z,21.6
2019-06-20T16:47:51.818Z,21.7
2019-06-20T16:49:51.754Z,21.5
2019-06-20T16:51:08.964Z,21.3
2019-06-20T16:51:51.816Z,21.4
2019-06-20T16:53:51.805Z,21.4
2019-06-20T16:55:51.815Z,21.3
2019-06-20T16:57:51.803Z,21.1
2019-06-20T16:59:51.755Z,21.2
2019-06-20T17:01:51.796Z,20.9
2019-06-20T17:03:51.820Z,20.8
2019-06-20T17:05:52.631Z,21
2019-06-20T17:06:08.972Z,20.9
2019-06-20T17:07:51.806Z,20.9
2019-06-20T17:09:51.815Z,20.8
2019-06-20T17:11:51.894Z,20.8
2019-06-20T17:13:51.859Z,20.8
2019-06-20T17:15:51.899Z,20.8
2019-06-20T17:17:51.817Z,20.8
2019-06-20T17:19:51.736Z,20.8
2019-06-20T17:21:08.987Z,20.9
2019-06-20T17:21:51.740Z,21.1
2019-06-20T17:23:51.821Z,20.8
2019-06-20T17:25:51.809Z,20.6
2019-06-20T17:27:51.873Z,20.4
2019-06-20T17:29:51.801Z,20.4
2019-06-20T17:31:51.805Z,20.8
2019-06-20T17:33:57.327Z,20.7
2019-06-20T17:35:51.766Z,20.4
2019-06-20T17:36:18.108Z,20.3
2019-06-20T17:37:51.889Z,20.1
2019-06-20T17:39:51.863Z,19.8
2019-06-20T17:41:55.368Z,19.6
2019-06-20T17:43:51.817Z,19.4
2019-06-20T17:45:51.810Z,19.4
2019-06-20T17:47:51.782Z,19.3
2019-06-20T17:49:51.903Z,19.3
2019-06-20T17:51:09.021Z,19.4
2019-06-20T17:51:51.775Z,19.4
2019-06-20T17:53:51.790Z,19.6
2019-06-20T17:55:52.681Z,19.5
2019-06-20T17:57:51.806Z,19.3
2019-06-20T17:59:51.786Z,19.4
2019-06-20T18:01:51.842Z,19.6
2019-06-20T18:03:51.762Z,19.6
2019-06-20T18:05:51.827Z,19.6
2019-06-20T18:06:09.017Z,19.7
2019-06-20T18:07:51.883Z,19.8
2019-06-20T18:09:53.695Z,19.9
2019-06-20T18:11:51.781Z,20.1
2019-06-20T18:13:51.826Z,20.1
2019-06-20T18:15:51.787Z,20.3
2019-06-20T18:17:51.777Z,20.1
2019-06-20T18:19:51.840Z,20
2019-06-20T18:21:09.037Z,20.3
2019-06-20T18:21:52.729Z,20.1
2019-06-20T18:23:51.762Z,19.9
2019-06-20T18:25:51.798Z,20
2019-06-20T18:27:51.803Z,20.1
2019-06-20T18:29:51.810Z,19.8
2019-06-20T18:31:51.798Z,19.6
2019-06-20T18:33:51.822Z,19.2
2019-06-20T18:35:51.808Z,19
2019-06-20T18:36:09.052Z,19
2019-06-20T18:37:51.826Z,18.9
2019-06-20T18:39:51.835Z,18.8
2019-06-20T18:41:51.817Z,18.6
2019-06-20T18:43:51.756Z,18.6
2019-06-20T18:45:51.789Z,18.6
2019-06-20T18:47:51.761Z,18.6
2019-06-20T18:49:51.803Z,18.6
2019-06-20T18:51:09.063Z,18.6
2019-06-20T18:51:51.847Z,18.6
2019-06-20T18:53:51.759Z,18.7
2019-06-20T18:55:51.759Z,18.6
2019-06-20T18:57:51.815Z,18.6
2019-06-20T18:59:52.603Z,18.4
2019-06-20T19:01:51.814Z,18.4
2019-06-20T19:03:51.777Z,18.3
2019-06-20T19:05:51.774Z,18.1
2019-06-20T19:06:08.933Z,18.2
2019-06-20T19:07:52.693Z,18.3
2019-06-20T19:09:51.847Z,18.1
2019-06-20T19:11:51.805Z,18.2
2019-06-20T19:13:51.808Z,18.1
2019-06-20T19:15:51.814Z,18.1
2019-06-20T19:17:51.683Z,18.3
2019-06-20T19:19:51.781Z,18.3
2019-06-20T19:21:08.952Z,18.1
2019-06-20T19:21:51.824Z,18.2
2019-06-20T19:23:55.088Z,18.3
2019-06-20T19:25:51.778Z,18.2
2019-06-20T19:27:51.774Z,18.2
2019-06-20T19:29:51.789Z,18
2019-06-20T19:31:51.758Z,18
2019-06-20T19:33:52.168Z,18
2019-06-20T19:35:51.758Z,17.9
2019-06-20T19:36:08.958Z,17.9
2019-06-20T19:37:51.797Z,17.8
2019-06-20T19:39:51.756Z,17.8
2019-06-20T19:41:51.811Z,17.6
2019-06-20T19:43:51.759Z,17.5
2019-06-20T19:45:51.810Z,17.6
2019-06-20T19:47:51.760Z,17.6
2019-06-20T19:49:51.811Z,17.4
2019-06-20T19:51:08.968Z,17.4
2019-06-20T19:51:51.773Z,17.4
2019-06-20T19:53:51.836Z,17.5
2019-06-20T19:55:51.761Z,17.5
2019-06-20T19:57:51.849Z,17.5
2019-06-20T19:59:51.754Z,17.5
2019-06-20T20:01:51.890Z,17.5
2019-06-20T20:03:51.831Z,17.5
2019-06-20T20:05:51.806Z,17.5
2019-06-20T20:06:08.990Z,17.4
2019-06-20T20:07:51.764Z,17.5
2019-06-20T20:09:51.811Z,17.4
2019-06-20T20:11:51.834Z,17.5
2019-06-20T20:13:51.825Z,17.5
2019-06-20T20:15:51.810Z,17.4
2019-06-20T20:17:51.808Z,17.4
2019-06-20T20:19:51.871Z,17.4
2019-06-20T20:21:08.987Z,17.3
2019-06-20T20:21:51.803Z,17.3
2019-06-20T20:23:51.801Z,17.4
2019-06-20T20:25:51.677Z,17.4
2019-06-20T20:27:51.904Z,17.4
2019-06-20T20:29:51.804Z,17.4
2019-06-20T20:31:51.836Z,17.4
2019-06-20T20:33:51.725Z,17.4
2019-06-20T20:35:51.755Z,17.4
2019-06-20T20:36:21.135Z,17.4
2019-06-20T20:37:51.812Z,17.4
2019-06-20T20:39:51.791Z,17.4
2019-06-20T20:41:51.813Z,17.4
2019-06-20T20:43:51.882Z,17.3
2019-06-20T20:45:51.813Z,17.3
2019-06-20T20:47:51.813Z,17.2
2019-06-20T20:49:51.812Z,17.1
2019-06-20T20:51:09.021Z,17.1
2019-06-20T20:51:51.884Z,17.1
2019-06-20T20:53:51.818Z,16.9
2019-06-20T20:55:51.838Z,16.9
2019-06-20T20:57:51.742Z,16.9
2019-06-20T20:59:51.772Z,16.8
2019-06-20T21:01:51.783Z,16.8
2019-06-20T21:03:51.850Z,16.7
2019-06-20T21:05:52.002Z,16.6
2019-06-20T21:06:09.047Z,16.6
2019-06-20T21:07:51.816Z,16.6
2019-06-20T21:09:51.881Z,16.6
2019-06-20T21:11:51.802Z,16.6
2019-06-20T21:13:51.812Z,16.7
2019-06-20T21:15:52.638Z,16.6
2019-06-20T21:17:51.794Z,16.5
2019-06-20T21:19:51.813Z,16.4
2019-06-20T21:21:09.041Z,16.5
2019-06-20T21:21:51.705Z,16.5
2019-06-20T21:23:51.791Z,16.6
2019-06-20T21:25:51.706Z,16.5
2019-06-20T21:27:51.818Z,16.4
2019-06-20T21:29:51.795Z,16.4
2019-06-20T21:31:51.816Z,16.5
2019-06-20T21:33:54.277Z,16.5
2019-06-20T21:36:07.174Z,16.6
2019-06-20T21:36:09.173Z,16.6
2019-06-20T21:37:51.803Z,16.6
2019-06-20T21:39:51.773Z,16.7
2019-06-20T21:41:51.759Z,16.7
2019-06-20T21:43:51.777Z,16.7
2019-06-20T21:45:51.798Z,16.6
2019-06-20T21:47:51.732Z,16.7
2019-06-20T21:49:51.814Z,16.7
2019-06-20T21:51:09.067Z,16.7
2019-06-20T21:51:51.712Z,16.7
2019-06-20T21:53:51.812Z,16.7
2019-06-20T21:55:51.791Z,16.6
2019-06-20T21:57:51.806Z,16.6
2019-06-20T21:59:51.772Z,16.6
2019-06-20T22:01:52.641Z,16.5
2019-06-20T22:03:51.763Z,16.5
2019-06-20T22:05:52.681Z,16.5
2019-06-20T22:06:22.838Z,16.5
2019-06-20T22:07:51.751Z,16.4
2019-06-20T22:09:51.750Z,16.4
2019-06-20T22:11:51.888Z,16.4
2019-06-20T22:13:51.844Z,16.3
2019-06-20T22:15:51.759Z,16.3
2019-06-20T22:17:51.915Z,16.3
2019-06-20T22:19:51.758Z,16.3
2019-06-20T22:21:08.958Z,16.3
2019-06-20T22:21:51.813Z,16.3
2019-06-20T22:23:51.832Z,16.3
2019-06-20T22:25:51.816Z,16.3
2019-06-20T22:27:51.749Z,16.3
2019-06-20T22:29:51.811Z,16.3
2019-06-20T22:31:51.791Z,16.3
2019-06-20T22:33:51.892Z,16.3
2019-06-20T22:35:51.755Z,16.2
2019-06-20T22:36:08.973Z,16.2
2019-06-20T22:37:51.803Z,16.3
2019-06-20T22:39:51.797Z,16.2
2019-06-20T22:41:51.915Z,16.1
2019-06-20T22:43:51.804Z,16.2
2019-06-20T22:45:51.826Z,16.1
2019-06-20T22:47:51.803Z,16
2019-06-20T22:49:51.798Z,16
2019-06-20T22:51:09.714Z,15.9
2019-06-20T22:51:51.880Z,15.9
2019-06-20T22:53:52.766Z,15.9
2019-06-20T22:55:51.789Z,15.9
2019-06-20T22:57:51.786Z,15.9
2019-06-20T22:59:51.805Z,15.9
2019-06-20T23:01:51.934Z,15.9
2019-06-20T23:03:51.833Z,15.8
2019-06-20T23:05:51.803Z,15.8
2019-06-20T23:06:08.870Z,15.8
2019-06-20T23:07:51.808Z,15.8
2019-06-20T23:09:51.841Z,15.8
2019-06-20T23:11:51.829Z,15.8
2019-06-20T23:13:51.816Z,15.8
2019-06-20T23:15:51.761Z,15.8
2019-06-20T23:17:51.854Z,15.7
2019-06-20T23:19:51.763Z,15.7
2019-06-20T23:21:08.877Z,15.6
2019-06-20T23:21:51.907Z,15.6
2019-06-20T23:23:51.775Z,15.6
2019-06-20T23:25:51.850Z,15.6
2019-06-20T23:27:51.887Z,15.6
2019-06-20T23:29:51.814Z,15.4
2019-06-20T23:31:51.814Z,15.4
2019-06-20T23:33:51.823Z,15.3